| time (UTC) | temp F | wind direction | speed knots | gust knots | rain 1hr in | rain 24hr in | rain mn in | humidity % | barometer mb |
| 20260906040055 | 80 | 88 | 2.6 | 8.7 | 0.00 | 0.00 | 0.00 | 84 | 1014.2 |
| 20260906034553 | 80 | 117 | 1.7 | 11.3 | 0.00 | 0.00 | 0.00 | 84 | 1014.0 |
| 20260906033059 | 81 | 5 | 3.5 | 8.7 | 0.00 | 0.00 | 0.00 | 84 | 1013.9 |
| 20260906031558 | 81 | 71 | 3.5 | 10.4 | 0.00 | 0.00 | 0.00 | 85 | 1013.7 |
| 20260906030054 | 82 | 57 | 2.6 | 7.0 | 0.00 | 0.00 | 0.00 | 86 | 1013.7 |
| 20260906024549 | 82 | 65 | 2.6 | 7.8 | 0.00 | 0.00 | 0.00 | 85 | 1013.4 |
| 20260906023049 | 83 | 73 | 1.7 | 7.8 | 0.00 | 0.00 | 0.00 | 84 | 1013.2 |
| 20260906021557 | 84 | 59 | 1.7 | 6.1 | 0.00 | 0.00 | 0.00 | 84 | 1013.2 |
| 20260906020048 | 84 | 55 | 0.9 | 3.5 | 0.00 | 0.00 | 0.00 | 84 | 1013.0 |
| 20260906014549 | 84 | 344 | 0.0 | 2.6 | 0.00 | 0.00 | 0.00 | 84 | 1012.7 |
| 20260906013048 | 85 | 55 | 0.0 | 1.7 | 0.00 | 0.00 | 0.00 | 83 | 1012.5 |
| 20260906011602 | 85 | 57 | 0.0 | 0.0 | 0.00 | 0.00 | 0.00 | 81 | 1012.4 |
| 20260906010047 | 86 | 57 | 0.0 | 1.7 | 0.00 | 0.00 | 0.00 | 80 | 1012.3 |
| 20260906004546 | 87 | 355 | 0.0 | 4.3 | 0.00 | 0.00 | 0.00 | 79 | 1012.2 |
| 20260906003046 | 88 | 329 | 0.9 | 3.5 | 0.00 | 0.00 | 0.00 | 77 | 1012.2 |
| 20260906001546 | 88 | 355 | 1.7 | 3.5 | 0.00 | 0.00 | 0.00 | 75 | 1012.2 |
| 20260906000045 | 89 | 57 | 2.6 | 6.1 | 0.00 | 0.00 | 0.00 | 74 | 1012.2 |
| 20260905234545 | 91 | 45 | 1.7 | 7.0 | 0.00 | 0.00 | 0.00 | 70 | 1012.1 |
| 20260905233103 | 92 | 23 | 0.9 | 5.2 | 0.00 | 0.00 | 0.00 | 69 | 1012.1 |
| 20260905231551 | 93 | 327 | 1.7 | 7.8 | 0.00 | 0.00 | 0.00 | 67 | 1012.1 |
| 20260905230046 | 93 | 15 | 2.6 | 7.8 | 0.00 | 0.00 | 0.00 | 64 | 1011.9 |
| 20260905224604 | 94 | 59 | 1.7 | 7.8 | 0.00 | 0.00 | 0.00 | 64 | 1011.9 |
| 20260905223041 | 93 | 355 | 2.6 | 7.0 | 0.00 | 0.00 | 0.00 | 65 | 1011.9 |
| 20260905221542 | 94 | 40 | 2.6 | 7.8 | 0.00 | 0.00 | 0.00 | 65 | 1012.0 |
| 20260905220047 | 93 | 53 | 2.6 | 7.8 | 0.00 | 0.00 | 0.00 | 66 | 1011.9 |
| 20260905214541 | 94 | 66 | 4.3 | 7.8 | 0.00 | 0.00 | 0.00 | 66 | 1012.0 |
| 20260905213036 | 94 | 55 | 4.3 | 8.7 | 0.00 | 0.00 | 0.00 | 66 | 1011.9 |
| 20260905211533 | 93 | 340 | 2.6 | 7.8 | 0.00 | 0.00 | 0.00 | 67 | 1012.0 |
| 20260905210031 | 94 | 319 | 4.3 | 12.2 | 0.00 | 0.00 | 0.00 | 66 | 1012.1 |
| 20260905204523 | 95 | 355 | 4.3 | 9.6 | 0.00 | 0.00 | 0.00 | 62 | 1012.2 |
| 20260905203021 | 95 | 337 | 3.5 | 10.4 | 0.00 | 0.00 | 0.00 | 58 | 1012.3 |
| 20260905201526 | 95 | 347 | 5.2 | 8.7 | 0.00 | 0.00 | 0.00 | 58 | 1012.4 |
| 20260905200020 | 95 | 328 | 4.3 | 7.8 | 0.00 | 0.00 | 0.00 | 58 | 1012.5 |
| 20260905194519 | 95 | 36 | 1.7 | 8.7 | 0.00 | 0.00 | 0.00 | 59 | 1012.6 |
| 20260905193018 | 95 | 297 | 2.6 | 9.6 | 0.00 | 0.00 | 0.00 | 59 | 1012.8 |
| 20260905191518 | 95 | 14 | 0.9 | 8.7 | 0.00 | 0.00 | 0.00 | 59 | 1012.8 |
| 20260905190016 | 96 | 360 | 3.5 | 8.7 | 0.00 | 0.00 | 0.00 | 56 | 1012.7 |
| 20260905184513 | 95 | 43 | 1.7 | 7.8 | 0.00 | 0.00 | 0.00 | 57 | 1012.8 |
| 20260905183012 | 95 | 9 | 2.6 | 9.6 | 0.00 | 0.00 | 0.00 | 58 | 1013.0 |
| 20260905181510 | 95 | 16 | 3.5 | 7.8 | 0.00 | 0.00 | 0.00 | 59 | 1013.1 |
| 20260905180012 | 94 | 344 | 3.5 | 7.8 | 0.00 | 0.00 | 0.00 | 60 | 1013.3 |
| 20260905174513 | 94 | 277 | 1.7 | 8.7 | 0.00 | 0.00 | 0.00 | 61 | 1013.3 |
| 20260905173018 | 93 | 350 | 3.5 | 7.8 | 0.00 | 0.00 | 0.00 | 61 | 1013.6 |
| 20260905171509 | 94 | 360 | 2.6 | 7.0 | 0.00 | 0.00 | 0.00 | 62 | 1013.5 |
| 20260905170006 | 95 | 277 | 0.9 | 5.2 | 0.00 | 0.00 | 0.00 | 59 | 1013.8 |
| 20260905164501 | 94 | 23 | 1.7 | 6.1 | 0.00 | 0.00 | 0.00 | 63 | 1013.6 |
| 20260905163103 | 94 | 247 | 0.9 | 6.1 | 0.00 | 0.00 | 0.00 | 63 | 1013.6 |
| 20260905161556 | 93 | 283 | 0.0 | 4.3 | 0.00 | 0.00 | 0.00 | 64 | 1013.6 |
| 20260905160051 | 91 | 277 | 2.6 | 7.0 | 0.00 | 0.00 | 0.00 | 66 | 1013.8 |
| 20260905154547 | 91 | 235 | 1.7 | 6.1 | 0.00 | 0.00 | 0.00 | 68 | 1013.6 |
| 20260905153044 | 90 | 242 | 1.7 | 6.1 | 0.00 | 0.00 | 0.00 | 69 | 1013.6 |
| 20260905151543 | 89 | 355 | 0.0 | 2.6 | 0.00 | 0.00 | 0.00 | 68 | 1013.5 |
| 20260905150039 | 90 | 15 | 0.0 | 3.5 | 0.00 | 0.00 | 0.00 | 69 | 1013.4 |
| 20260905144541 | 88 | 269 | 1.7 | 3.5 | 0.00 | 0.00 | 0.00 | 72 | 1013.3 |
| 20260905143033 | 86 | 249 | 0.0 | 1.7 | 0.00 | 0.00 | 0.00 | 73 | 1013.3 |
| 20260905141530 | 85 | 247 | 2.6 | 4.3 | 0.00 | 0.00 | 0.00 | 74 | 1013.1 |
| 20260905140025 | 84 | 200 | 0.0 | 0.9 | 0.00 | 0.00 | 0.00 | 76 | 1013.2 |
| 20260905134523 | 83 | 200 | 0.0 | 1.7 | 0.00 | 0.00 | 0.00 | 77 | 1013.4 |
| 20260905133020 | 82 | 192 | 0.0 | 0.0 | 0.00 | 0.00 | 0.00 | 78 | 1013.3 |
| 20260905131632 | 81 | 184 | 0.0 | 0.9 | 0.00 | 0.00 | 0.00 | 84 | 1013.4 |
| 20260905130015 | 77 | 184 | 0.0 | 0.9 | 0.00 | 0.00 | 0.00 | 90 | 1013.2 |
| 20260905124533 | 76 | 184 | 0.0 | 0.0 | 0.00 | 0.00 | 0.00 | 92 | 1013.3 |
| 20260905123012 | 75 | 184 | 0.0 | 0.0 | 0.00 | 0.00 | 0.00 | 92 | 1013.1 |
| 20260905121521 | 75 | 184 | 0.0 | 0.0 | 0.00 | 0.00 | 0.00 | 92 | 1013.1 |
| 20260905120011 | 74 | 184 | 0.0 | 0.0 | 0.00 | 0.00 | 0.00 | 92 | 1012.8 |
| 20260905114523 | 75 | 184 | 0.0 | 0.0 | 0.00 | 0.00 | 0.00 | 91 | 1012.7 |
| 20260905113008 | 75 | 184 | 0.0 | 0.0 | 0.00 | 0.00 | 0.00 | 91 | 1012.6 |
| 20260905111510 | 75 | 184 | 0.0 | 0.0 | 0.00 | 0.00 | 0.00 | 91 | 1012.4 |
| 20260905110007 | 75 | 184 | 0.0 | 0.0 | 0.00 | 0.00 | 0.00 | 90 | 1012.2 |
| 20260905104505 | 75 | 184 | 0.0 | 0.0 | 0.00 | 0.00 | 0.00 | 90 | 1012.4 |
| 20260905103014 | 75 | 184 | 0.0 | 0.0 | 0.00 | 0.00 | 0.00 | 90 | 1012.4 |
| 20260905101502 | 76 | 184 | 0.0 | 0.0 | 0.00 | 0.00 | 0.00 | 89 | 1012.4 |
| 20260905100001 | 76 | 184 | 0.0 | 0.0 | 0.00 | 0.00 | 0.00 | 89 | 1012.4 |
| 20260905094600 | 76 | 184 | 0.0 | 3.5 | 0.00 | 0.00 | 0.00 | 89 | 1012.5 |
| 20260905093102 | 76 | 184 | 0.0 | 0.0 | 0.00 | 0.00 | 0.00 | 89 | 1012.4 |
| 20260905091614 | 76 | 184 | 0.0 | 0.0 | 0.00 | 0.00 | 0.00 | 89 | 1012.6 |
| 20260905090056 | 77 | 184 | 0.0 | 0.0 | 0.00 | 0.00 | 0.00 | 89 | 1012.7 |
| 20260905084654 | 77 | 184 | 0.0 | 0.0 | 0.00 | 0.00 | 0.00 | 88 | 1012.6 |
| 20260905083054 | 77 | 184 | 0.0 | 0.0 | 0.00 | 0.00 | 0.00 | 88 | 1012.7 |
| 20260905081557 | 77 | 184 | 0.0 | 0.0 | 0.00 | 0.00 | 0.00 | 88 | 1012.9 |
| 20260905080053 | 77 | 184 | 0.0 | 0.0 | 0.00 | 0.00 | 0.00 | 88 | 1012.9 |
| 20260905074556 | 78 | 184 | 0.0 | 0.0 | 0.00 | 0.00 | 0.00 | 88 | 1012.9 |
| 20260905073051 | 78 | 184 | 0.0 | 0.0 | 0.00 | 0.00 | 0.00 | 88 | 1013.0 |
| 20260905071557 | 78 | 184 | 0.0 | 0.0 | 0.00 | 0.00 | 0.00 | 89 | 1013.0 |
| 20260905070056 | 78 | 184 | 0.0 | 0.9 | 0.00 | 0.00 | 0.00 | 90 | 1013.1 |
| 20260905064548 | 77 | 184 | 0.0 | 4.3 | 0.00 | 0.00 | 0.00 | 88 | 1013.1 |
| 20260905063050 | 78 | 184 | 0.0 | 0.0 | 0.00 | 0.00 | 0.00 | 88 | 1012.9 |
| 20260905061547 | 78 | 184 | 0.0 | 0.0 | 0.00 | 0.00 | 0.00 | 87 | 1012.9 |
| 20260905060041 | 79 | 184 | 0.0 | 0.0 | 0.00 | 0.00 | 0.00 | 86 | 1012.9 |
| 20260905054539 | 79 | 184 | 0.0 | 0.0 | 0.00 | 0.00 | 0.00 | 86 | 1012.7 |
| 20260905053037 | 79 | 184 | 0.0 | 0.0 | 0.00 | 0.00 | 0.00 | 86 | 1012.7 |
| 20260905051539 | 79 | 184 | 0.0 | 0.9 | 0.00 | 0.00 | 0.00 | 86 | 1012.6 |
| 20260905050034 | 79 | 184 | 0.0 | 0.0 | 0.00 | 0.00 | 0.00 | 86 | 1012.6 |
| 20260905044535 | 79 | 184 | 0.0 | 0.0 | 0.00 | 0.00 | 0.00 | 86 | 1012.9 |
| 20260905043033 | 79 | 184 | 0.0 | 0.0 | 0.00 | 0.00 | 0.00 | 85 | 1012.9 |
| 20260905041532 | 80 | 184 | 0.0 | 0.0 | 0.00 | 0.00 | 0.00 | 84 | 1012.9 |